sensor_id;sensor_type;location;lat;lon;timestamp;pressure;altitude;pressure_sealevel;temperature;humidity
113;BME280;45999;48.808;9.182;2024-02-21T00:01:22;99109.16;;;7.16;nan
113;BME280;45999;48.808;9.182;2024-02-21T00:03:49;99104.03;;;7.15;nan
113;BME280;45999;48.808;9.182;2024-02-21T00:06:15;99104.53;;;7.10;nan
113;BME280;45999;48.808;9.182;2024-02-21T00:08:41;99104.84;;;7.15;nan
113;BME280;45999;48.808;9.182;2024-02-21T00:11:08;99098.56;;;7.16;nan
113;BME280;45999;48.808;9.182;2024-02-21T00:13:34;99100.06;;;7.19;nan
113;BME280;45999;48.808;9.182;2024-02-21T00:16:01;99111.97;;;7.15;nan
113;BME280;45999;48.808;9.182;2024-02-21T00:18:27;99094.25;;;7.15;nan
113;BME280;45999;48.808;9.182;2024-02-21T00:20:53;99096.41;;;7.20;nan
113;BME280;45999;48.808;9.182;2024-02-21T00:23:20;99089.09;;;7.22;nan
113;BME280;45999;48.808;9.182;2024-02-21T00:25:46;99087.13;;;7.24;nan
113;BME280;45999;48.808;9.182;2024-02-21T00:28:13;99077.53;;;7.23;nan
113;BME280;45999;48.808;9.182;2024-02-21T00:30:39;99073.91;;;7.24;nan
113;BME280;45999;48.808;9.182;2024-02-21T00:33:05;99065.31;;;7.22;nan
113;BME280;45999;48.808;9.182;2024-02-21T00:35:32;99062.81;;;7.20;nan
113;BME280;45999;48.808;9.182;2024-02-21T00:37:58;99064.50;;;7.21;nan
113;BME280;45999;48.808;9.182;2024-02-21T00:40:25;99066.31;;;7.21;nan
113;BME280;45999;48.808;9.182;2024-02-21T00:42:51;99055.25;;;7.17;nan
113;BME280;45999;48.808;9.182;2024-02-21T00:45:17;99057.75;;;7.19;nan
113;BME280;45999;48.808;9.182;2024-02-21T00:47:44;99051.78;;;7.17;nan
113;BME280;45999;48.808;9.182;2024-02-21T00:50:10;99051.31;;;7.13;nan
113;BME280;45999;48.808;9.182;2024-02-21T00:52:36;99054.97;;;7.12;nan
113;BME280;45999;48.808;9.182;2024-02-21T00:55:04;99043.88;;;7.09;nan
113;BME280;45999;48.808;9.182;2024-02-21T00:57:30;99051.00;;;7.08;nan
113;BME280;45999;48.808;9.182;2024-02-21T00:59:57;99044.88;;;7.08;nan
113;BME280;45999;48.808;9.182;2024-02-21T01:02:23;99038.47;;;7.02;nan
113;BME280;45999;48.808;9.182;2024-02-21T01:04:49;99045.72;;;7.08;nan
113;BME280;45999;48.808;9.182;2024-02-21T01:07:16;99042.94;;;7.02;nan
113;BME280;45999;48.808;9.182;2024-02-21T01:09:42;99030.34;;;7.04;nan
113;BME280;45999;48.808;9.182;2024-02-21T01:12:08;99031.53;;;7.01;nan
113;BME280;45999;48.808;9.182;2024-02-21T01:14:35;99026.59;;;6.98;nan
113;BME280;45999;48.808;9.182;2024-02-21T01:17:01;99016.19;;;6.97;nan
113;BME280;45999;48.808;9.182;2024-02-21T01:19:27;99017.16;;;6.96;nan
113;BME280;45999;48.808;9.182;2024-02-21T01:21:54;99009.59;;;6.93;nan
113;BME280;45999;48.808;9.182;2024-02-21T01:24:20;99008.59;;;6.94;nan
113;BME280;45999;48.808;9.182;2024-02-21T01:26:47;99008.28;;;6.97;nan
113;BME280;45999;48.808;9.182;2024-02-21T01:29:13;99005.31;;;6.92;nan
113;BME280;45999;48.808;9.182;2024-02-21T01:31:39;98997.56;;;6.90;nan
113;BME280;45999;48.808;9.182;2024-02-21T01:34:06;98997.09;;;6.87;nan
113;BME280;45999;48.808;9.182;2024-02-21T01:36:32;98993.78;;;6.85;nan
113;BME280;45999;48.808;9.182;2024-02-21T01:38:58;98987.50;;;6.86;nan
113;BME280;45999;48.808;9.182;2024-02-21T01:41:25;98974.94;;;6.88;nan
113;BME280;45999;48.808;9.182;2024-02-21T01:43:51;98979.44;;;6.79;nan
113;BME280;45999;48.808;9.182;2024-02-21T01:46:18;98974.81;;;6.81;nan
113;BME280;45999;48.808;9.182;2024-02-21T01:48:45;98966.72;;;6.83;nan
113;BME280;45999;48.808;9.182;2024-02-21T01:51:12;98953.50;;;6.83;nan
113;BME280;45999;48.808;9.182;2024-02-21T01:53:42;98961.91;;;6.86;nan
113;BME280;45999;48.808;9.182;2024-02-21T01:56:09;98956.59;;;6.86;nan
113;BME280;45999;48.808;9.182;2024-02-21T01:58:37;98957.47;;;6.79;nan
113;BME280;45999;48.808;9.182;2024-02-21T02:01:05;98947.91;;;6.78;nan
113;BME280;45999;48.808;9.182;2024-02-21T02:03:31;98939.63;;;6.81;nan
113;BME280;45999;48.808;9.182;2024-02-21T02:05:58;98939.16;;;6.77;nan
113;BME280;45999;48.808;9.182;2024-02-21T02:08:25;98940.78;;;6.78;nan
113;BME280;45999;48.808;9.182;2024-02-21T02:10:52;98940.78;;;6.78;nan
113;BME280;45999;48.808;9.182;2024-02-21T02:13:18;98935.16;;;6.81;nan
113;BME280;45999;48.808;9.182;2024-02-21T02:15:46;98931.97;;;6.86;nan
113;BME280;45999;48.808;9.182;2024-02-21T02:18:14;98930.88;;;6.80;nan
113;BME280;45999;48.808;9.182;2024-02-21T02:20:41;98919.31;;;6.81;nan
113;BME280;45999;48.808;9.182;2024-02-21T02:23:10;98930.34;;;6.85;nan
113;BME280;45999;48.808;9.182;2024-02-21T02:25:37;98918.84;;;6.78;nan
113;BME280;45999;48.808;9.182;2024-02-21T02:28:07;98923.88;;;6.87;nan
113;BME280;45999;48.808;9.182;2024-02-21T02:30:34;98917.47;;;6.82;nan
113;BME280;45999;48.808;9.182;2024-02-21T02:33:03;98899.47;;;6.85;nan
113;BME280;45999;48.808;9.182;2024-02-21T02:35:30;98907.91;;;6.81;nan
113;BME280;45999;48.808;9.182;2024-02-21T02:37:56;98906.72;;;6.83;nan
113;BME280;45999;48.808;9.182;2024-02-21T02:40:23;98903.28;;;6.83;nan
113;BME280;45999;48.808;9.182;2024-02-21T02:42:50;98897.78;;;6.84;nan
113;BME280;45999;48.808;9.182;2024-02-21T02:45:17;98888.06;;;6.85;nan
113;BME280;45999;48.808;9.182;2024-02-21T02:47:44;98887.56;;;6.89;nan
113;BME280;45999;48.808;9.182;2024-02-21T02:50:12;98881.59;;;6.87;nan
113;BME280;45999;48.808;9.182;2024-02-21T02:52:38;98877.03;;;6.81;nan
113;BME280;45999;48.808;9.182;2024-02-21T02:55:05;98868.56;;;6.86;nan
113;BME280;45999;48.808;9.182;2024-02-21T02:57:32;98858.97;;;6.85;nan
113;BME280;45999;48.808;9.182;2024-02-21T02:59:59;98859.16;;;6.83;nan
113;BME280;45999;48.808;9.182;2024-02-21T03:02:25;98851.47;;;6.74;nan
113;BME280;45999;48.808;9.182;2024-02-21T03:04:51;98846.81;;;6.76;nan
113;BME280;45999;48.808;9.182;2024-02-21T03:07:19;98842.41;;;6.68;nan
113;BME280;45999;48.808;9.182;2024-02-21T03:09:46;98857.59;;;6.66;nan
113;BME280;45999;48.808;9.182;2024-02-21T03:12:12;98861.78;;;6.61;nan
113;BME280;45999;48.808;9.182;2024-02-21T03:14:44;98864.06;;;6.64;nan
113;BME280;45999;48.808;9.182;2024-02-21T03:17:10;98875.63;;;6.63;nan
113;BME280;45999;48.808;9.182;2024-02-21T03:19:36;98879.75;;;6.65;nan
113;BME280;45999;48.808;9.182;2024-02-21T03:22:03;98880.59;;;6.66;nan
113;BME280;45999;48.808;9.182;2024-02-21T03:24:31;98873.28;;;6.68;nan
113;BME280;45999;48.808;9.182;2024-02-21T03:26:57;98871.34;;;6.62;nan
113;BME280;45999;48.808;9.182;2024-02-21T03:29:25;98857.84;;;6.57;nan
113;BME280;45999;48.808;9.182;2024-02-21T03:31:51;98848.13;;;6.57;nan
113;BME280;45999;48.808;9.182;2024-02-21T03:34:17;98851.28;;;6.53;nan
113;BME280;45999;48.808;9.182;2024-02-21T03:36:44;98837.88;;;6.54;nan
113;BME280;45999;48.808;9.182;2024-02-21T03:39:10;98833.13;;;6.50;nan
113;BME280;45999;48.808;9.182;2024-02-21T03:41:36;98843.03;;;6.48;nan
113;BME280;45999;48.808;9.182;2024-02-21T03:44:03;98827.72;;;6.43;nan
113;BME280;45999;48.808;9.182;2024-02-21T03:46:30;98826.22;;;6.41;nan
113;BME280;45999;48.808;9.182;2024-02-21T03:48:57;98834.81;;;6.43;nan
113;BME280;45999;48.808;9.182;2024-02-21T03:51:23;98839.44;;;6.41;nan
113;BME280;45999;48.808;9.182;2024-02-21T03:53:50;98836.34;;;6.37;nan
113;BME280;45999;48.808;9.182;2024-02-21T03:56:16;98835.88;;;6.34;nan
113;BME280;45999;48.808;9.182;2024-02-21T03:58:42;98827.28;;;6.32;nan
113;BME280;45999;48.808;9.182;2024-02-21T04:01:09;98824.47;;;6.33;nan
113;BME280;45999;48.808;9.182;2024-02-21T04:03:35;98820.19;;;6.32;nan
113;BME280;45999;48.808;9.182;2024-02-21T04:06:01;98813.91;;;6.33;nan
113;BME280;45999;48.808;9.182;2024-02-21T04:08:28;98819.84;;;6.35;nan
113;BME280;45999;48.808;9.182;2024-02-21T04:10:54;98812.72;;;6.36;nan
113;BME280;45999;48.808;9.182;2024-02-21T04:13:20;98810.75;;;6.38;nan
113;BME280;45999;48.808;9.182;2024-02-21T04:15:48;98800.81;;;6.40;nan
113;BME280;45999;48.808;9.182;2024-02-21T04:18:14;98802.00;;;6.37;nan
113;BME280;45999;48.808;9.182;2024-02-21T04:20:40;98797.59;;;6.30;nan
113;BME280;45999;48.808;9.182;2024-02-21T04:23:07;98785.91;;;6.24;nan
113;BME280;45999;48.808;9.182;2024-02-21T04:25:33;98778.50;;;6.20;nan
113;BME280;45999;48.808;9.182;2024-02-21T04:27:59;98782.63;;;6.22;nan
113;BME280;45999;48.808;9.182;2024-02-21T04:30:26;98785.13;;;6.16;nan
113;BME280;45999;48.808;9.182;2024-02-21T04:32:52;98790.41;;;6.16;nan
113;BME280;45999;48.808;9.182;2024-02-21T04:35:19;98784.56;;;5.98;nan
113;BME280;45999;48.808;9.182;2024-02-21T04:37:45;98780.59;;;6.02;nan
113;BME280;45999;48.808;9.182;2024-02-21T04:40:12;98774.19;;;5.96;nan
113;BME280;45999;48.808;9.182;2024-02-21T04:42:39;98773.72;;;5.93;nan
113;BME280;45999;48.808;9.182;2024-02-21T04:45:06;98770.91;;;5.94;nan
113;BME280;45999;48.808;9.182;2024-02-21T04:47:32;98778.81;;;5.94;nan
113;BME280;45999;48.808;9.182;2024-02-21T04:49:59;98771.38;;;5.98;nan
113;BME280;45999;48.808;9.182;2024-02-21T04:52:25;98781.25;;;5.96;nan
113;BME280;45999;48.808;9.182;2024-02-21T04:54:51;98784.88;;;6.03;nan
113;BME280;45999;48.808;9.182;2024-02-21T04:57:18;98777.56;;;6.13;nan
113;BME280;45999;48.808;9.182;2024-02-21T04:59:44;98787.53;;;6.25;nan
113;BME280;45999;48.808;9.182;2024-02-21T05:02:12;98788.06;;;6.21;nan
113;BME280;45999;48.808;9.182;2024-02-21T05:04:38;98792.44;;;6.36;nan
113;BME280;45999;48.808;9.182;2024-02-21T05:07:06;98793.59;;;6.34;nan
113;BME280;45999;48.808;9.182;2024-02-21T05:09:33;98785.97;;;6.39;nan
113;BME280;45999;48.808;9.182;2024-02-21T05:11:59;98785.41;;;6.29;nan
113;BME280;45999;48.808;9.182;2024-02-21T05:14:26;98789.38;;;6.25;nan
113;BME280;45999;48.808;9.182;2024-02-21T05:16:53;98785.13;;;6.16;nan
113;BME280;45999;48.808;9.182;2024-02-21T05:19:19;98788.81;;;6.07;nan
113;BME280;45999;48.808;9.182;2024-02-21T05:21:46;98772.41;;;5.89;nan
113;BME280;45999;48.808;9.182;2024-02-21T05:24:12;98769.94;;;5.79;nan
113;BME280;45999;48.808;9.182;2024-02-21T05:26:38;98751.31;;;5.73;nan
113;BME280;45999;48.808;9.182;2024-02-21T05:29:05;98733.84;;;5.72;nan
113;BME280;45999;48.808;9.182;2024-02-21T05:34:18;98744.38;;;5.80;nan
113;BME280;45999;48.808;9.182;2024-02-21T05:36:45;98730.22;;;5.73;nan
113;BME280;45999;48.808;9.182;2024-02-21T05:39:12;98730.22;;;5.73;nan
113;BME280;45999;48.808;9.182;2024-02-21T05:41:39;98732.84;;;5.81;nan
113;BME280;45999;48.808;9.182;2024-02-21T05:44:05;98731.19;;;5.88;nan
113;BME280;45999;48.808;9.182;2024-02-21T05:46:32;98722.56;;;5.94;nan
113;BME280;45999;48.808;9.182;2024-02-21T05:48:58;98722.72;;;5.92;nan
113;BME280;45999;48.808;9.182;2024-02-21T05:51:24;98720.09;;;5.92;nan
113;BME280;45999;48.808;9.182;2024-02-21T05:53:51;98719.47;;;5.90;nan
113;BME280;45999;48.808;9.182;2024-02-21T05:56:17;98713.88;;;5.85;nan
113;BME280;45999;48.808;9.182;2024-02-21T05:58:44;98719.31;;;5.84;nan
113;BME280;45999;48.808;9.182;2024-02-21T06:01:11;98710.06;;;5.80;nan
113;BME280;45999;48.808;9.182;2024-02-21T06:03:37;98705.66;;;5.72;nan
113;BME280;45999;48.808;9.182;2024-02-21T06:06:03;98708.66;;;5.69;nan
113;BME280;45999;48.808;9.182;2024-02-21T06:08:30;98708.19;;;5.66;nan
113;BME280;45999;48.808;9.182;2024-02-21T06:10:57;98712.84;;;5.56;nan
113;BME280;45999;48.808;9.182;2024-02-21T06:13:23;98712.75;;;5.72;nan
113;BME280;45999;48.808;9.182;2024-02-21T06:15:50;98709.84;;;5.59;nan
113;BME280;45999;48.808;9.182;2024-02-21T06:18:17;98707.19;;;5.59;nan
113;BME280;45999;48.808;9.182;2024-02-21T06:20:44;98707.88;;;5.61;nan
113;BME280;45999;48.808;9.182;2024-02-21T06:23:11;98703.50;;;5.76;nan
113;BME280;45999;48.808;9.182;2024-02-21T06:25:38;98712.72;;;5.88;nan
113;BME280;45999;48.808;9.182;2024-02-21T06:28:05;98713.00;;;5.93;nan
113;BME280;45999;48.808;9.182;2024-02-21T06:30:31;98711.53;;;5.90;nan
113;BME280;45999;48.808;9.182;2024-02-21T06:32:58;98721.25;;;5.90;nan
113;BME280;45999;48.808;9.182;2024-02-21T06:35:25;98729.88;;;5.84;nan
113;BME280;45999;48.808;9.182;2024-02-21T06:37:52;98722.97;;;5.83;nan
113;BME280;45999;48.808;9.182;2024-02-21T06:40:21;98739.72;;;5.90;nan
113;BME280;45999;48.808;9.182;2024-02-21T06:42:48;98738.19;;;6.03;nan
113;BME280;45999;48.808;9.182;2024-02-21T06:45:15;98732.53;;;6.06;nan
113;BME280;45999;48.808;9.182;2024-02-21T06:47:41;98719.88;;;6.02;nan
113;BME280;45999;48.808;9.182;2024-02-21T06:50:08;98714.25;;;6.05;nan
113;BME280;45999;48.808;9.182;2024-02-21T06:52:36;98713.13;;;5.99;nan
113;BME280;45999;48.808;9.182;2024-02-21T06:55:03;98705.06;;;6.01;nan
113;BME280;45999;48.808;9.182;2024-02-21T06:57:30;98705.69;;;6.03;nan
113;BME280;45999;48.808;9.182;2024-02-21T06:59:56;98706.31;;;6.05;nan
113;BME280;45999;48.808;9.182;2024-02-21T07:02:23;98705.09;;;6.15;nan
113;BME280;45999;48.808;9.182;2024-02-21T07:04:49;98705.47;;;6.12;nan
113;BME280;45999;48.808;9.182;2024-02-21T07:07:16;98703.94;;;6.18;nan
113;BME280;45999;48.808;9.182;2024-02-21T07:09:42;98705.59;;;6.19;nan
113;BME280;45999;48.808;9.182;2024-02-21T07:12:08;98691.69;;;6.25;nan
113;BME280;45999;48.808;9.182;2024-02-21T07:14:35;98689.97;;;6.32;nan
113;BME280;45999;48.808;9.182;2024-02-21T07:17:02;98689.63;;;6.35;nan
113;BME280;45999;48.808;9.182;2024-02-21T07:19:28;98690.75;;;6.40;nan
113;BME280;45999;48.808;9.182;2024-02-21T07:21:55;98681.88;;;6.56;nan
113;BME280;45999;48.808;9.182;2024-02-21T07:24:21;98675.22;;;6.60;nan
113;BME280;45999;48.808;9.182;2024-02-21T07:26:50;98677.41;;;6.71;nan
113;BME280;45999;48.808;9.182;2024-02-21T07:29:16;98679.63;;;6.82;nan
113;BME280;45999;48.808;9.182;2024-02-21T07:31:43;98683.19;;;6.89;nan
113;BME280;45999;48.808;9.182;2024-02-21T07:34:10;98681.38;;;7.04;nan
113;BME280;45999;48.808;9.182;2024-02-21T07:36:37;98675.84;;;7.13;nan
113;BME280;45999;48.808;9.182;2024-02-21T07:39:04;98673.56;;;7.25;nan
113;BME280;45999;48.808;9.182;2024-02-21T07:41:30;98675.72;;;7.36;nan
113;BME280;45999;48.808;9.182;2024-02-21T07:43:58;98677.44;;;7.43;nan
113;BME280;45999;48.808;9.182;2024-02-21T07:46:25;98672.25;;;7.50;nan
113;BME280;45999;48.808;9.182;2024-02-21T07:48:51;98663.59;;;7.56;nan
113;BME280;45999;48.808;9.182;2024-02-21T07:51:17;98656.78;;;7.68;nan
113;BME280;45999;48.808;9.182;2024-02-21T07:53:44;98649.09;;;7.73;nan
113;BME280;45999;48.808;9.182;2024-02-21T07:56:13;98648.13;;;7.74;nan
113;BME280;45999;48.808;9.182;2024-02-21T07:58:41;98649.41;;;7.78;nan
113;BME280;45999;48.808;9.182;2024-02-21T08:01:08;98655.94;;;7.82;nan
113;BME280;45999;48.808;9.182;2024-02-21T08:03:34;98644.97;;;7.85;nan
113;BME280;45999;48.808;9.182;2024-02-21T08:06:02;98645.06;;;7.91;nan
113;BME280;45999;48.808;9.182;2024-02-21T08:08:29;98647.44;;;7.86;nan
113;BME280;45999;48.808;9.182;2024-02-21T08:10:55;98650.09;;;7.86;nan
113;BME280;45999;48.808;9.182;2024-02-21T08:13:22;98660.19;;;7.97;nan
113;BME280;45999;48.808;9.182;2024-02-21T08:15:48;98654.09;;;7.97;nan
113;BME280;45999;48.808;9.182;2024-02-21T08:18:15;98655.72;;;7.98;nan
113;BME280;45999;48.808;9.182;2024-02-21T08:20:41;98653.38;;;8.09;nan
113;BME280;45999;48.808;9.182;2024-02-21T08:23:07;98654.47;;;8.15;nan
113;BME280;45999;48.808;9.182;2024-02-21T08:25:34;98646.44;;;8.23;nan
113;BME280;45999;48.808;9.182;2024-02-21T08:28:00;98653.50;;;8.37;nan
113;BME280;45999;48.808;9.182;2024-02-21T08:30:27;98651.03;;;8.35;nan
113;BME280;45999;48.808;9.182;2024-02-21T08:32:53;98650.44;;;8.40;nan
113;BME280;45999;48.808;9.182;2024-02-21T08:35:20;98646.66;;;8.49;nan
113;BME280;45999;48.808;9.182;2024-02-21T08:37:47;98636.81;;;8.64;nan
113;BME280;45999;48.808;9.182;2024-02-21T08:40:14;98629.50;;;8.72;nan
113;BME280;45999;48.808;9.182;2024-02-21T08:42:43;98627.56;;;8.87;nan
113;BME280;45999;48.808;9.182;2024-02-21T08:45:10;98620.50;;;8.94;nan
113;BME280;45999;48.808;9.182;2024-02-21T08:47:39;98616.06;;;9.08;nan
113;BME280;45999;48.808;9.182;2024-02-21T08:50:06;98622.22;;;9.15;nan
113;BME280;45999;48.808;9.182;2024-02-21T08:52:33;98622.53;;;8.99;nan
113;BME280;45999;48.808;9.182;2024-02-21T08:54:59;98615.75;;;8.90;nan
113;BME280;45999;48.808;9.182;2024-02-21T08:57:25;98616.25;;;9.06;nan
113;BME280;45999;48.808;9.182;2024-02-21T08:59:52;98611.59;;;9.08;nan
113;BME280;45999;48.808;9.182;2024-02-21T09:02:18;98613.72;;;9.26;nan
113;BME280;45999;48.808;9.182;2024-02-21T09:04:45;98597.38;;;9.22;nan
113;BME280;45999;48.808;9.182;2024-02-21T09:07:11;98600.59;;;9.11;nan
113;BME280;45999;48.808;9.182;2024-02-21T09:09:37;98582.09;;;9.31;nan
113;BME280;45999;48.808;9.182;2024-02-21T09:12:06;98588.25;;;9.38;nan
113;BME280;45999;48.808;9.182;2024-02-21T09:14:33;98595.91;;;9.67;nan
113;BME280;45999;48.808;9.182;2024-02-21T09:17:00;98588.31;;;9.51;nan
113;BME280;45999;48.808;9.182;2024-02-21T09:19:26;98593.22;;;9.47;nan
113;BME280;45999;48.808;9.182;2024-02-21T09:21:52;98591.97;;;9.43;nan
113;BME280;45999;48.808;9.182;2024-02-21T09:24:19;98583.16;;;9.43;nan
113;BME280;45999;48.808;9.182;2024-02-21T09:26:45;98583.38;;;9.48;nan
113;BME280;45999;48.808;9.182;2024-02-21T09:29:12;98571.16;;;9.53;nan
113;BME280;45999;48.808;9.182;2024-02-21T09:31:40;98572.19;;;9.52;nan
113;BME280;45999;48.808;9.182;2024-02-21T09:34:07;98571.19;;;9.60;nan
113;BME280;45999;48.808;9.182;2024-02-21T09:36:33;98578.78;;;9.76;nan
113;BME280;45999;48.808;9.182;2024-02-21T09:38:59;98574.88;;;9.72;nan
113;BME280;45999;48.808;9.182;2024-02-21T09:41:26;98570.19;;;9.67;nan
113;BME280;45999;48.808;9.182;2024-02-21T09:43:53;98567.13;;;9.70;nan
113;BME280;45999;48.808;9.182;2024-02-21T09:46:24;98572.03;;;9.80;nan
113;BME280;45999;48.808;9.182;2024-02-21T09:49:08;98566.81;;;10.06;nan
113;BME280;45999;48.808;9.182;2024-02-21T09:51:40;98554.09;;;10.01;nan
113;BME280;45999;48.808;9.182;2024-02-21T09:54:07;98554.97;;;10.28;nan
113;BME280;45999;48.808;9.182;2024-02-21T09:56:34;98556.59;;;10.09;nan
113;BME280;45999;48.808;9.182;2024-02-21T09:59:01;98560.28;;;10.08;nan
113;BME280;45999;48.808;9.182;2024-02-21T10:01:30;98557.00;;;10.06;nan
113;BME280;45999;48.808;9.182;2024-02-21T10:03:57;98555.34;;;10.12;nan
113;BME280;45999;48.808;9.182;2024-02-21T10:06:23;98547.00;;;10.28;nan
113;BME280;45999;48.808;9.182;2024-02-21T10:08:53;98551.47;;;10.34;nan
113;BME280;45999;48.808;9.182;2024-02-21T10:11:26;98544.53;;;10.52;nan
113;BME280;45999;48.808;9.182;2024-02-21T10:14:05;98527.16;;;10.50;nan
113;BME280;45999;48.808;9.182;2024-02-21T10:16:31;98534.50;;;10.35;nan
113;BME280;45999;48.808;9.182;2024-02-21T10:18:58;98525.53;;;10.36;nan
113;BME280;45999;48.808;9.182;2024-02-21T10:21:24;98527.69;;;10.78;nan
113;BME280;45999;48.808;9.182;2024-02-21T10:23:51;98516.28;;;10.58;nan
113;BME280;45999;48.808;9.182;2024-02-21T10:26:19;98512.72;;;10.90;nan
113;BME280;45999;48.808;9.182;2024-02-21T10:28:47;98508.25;;;10.84;nan
113;BME280;45999;48.808;9.182;2024-02-21T10:31:24;98515.00;;;10.80;nan
113;BME280;45999;48.808;9.182;2024-02-21T10:33:55;98507.59;;;10.95;nan
113;BME280;45999;48.808;9.182;2024-02-21T10:36:22;98501.25;;;10.96;nan
113;BME280;45999;48.808;9.182;2024-02-21T10:38:49;98505.34;;;10.98;nan
113;BME280;45999;48.808;9.182;2024-02-21T10:41:19;98500.78;;;11.05;nan
113;BME280;45999;48.808;9.182;2024-02-21T10:43:51;98501.94;;;11.23;nan
113;BME280;45999;48.808;9.182;2024-02-21T10:46:19;98489.88;;;11.20;nan
113;BME280;45999;48.808;9.182;2024-02-21T10:48:47;98483.22;;;10.98;nan
113;BME280;45999;48.808;9.182;2024-02-21T10:51:18;98485.22;;;11.16;nan
113;BME280;45999;48.808;9.182;2024-02-21T10:53:57;98485.78;;;11.24;nan
113;BME280;45999;48.808;9.182;2024-02-21T10:56:30;98474.88;;;11.32;nan
113;BME280;45999;48.808;9.182;2024-02-21T10:59:01;98464.78;;;11.41;nan
113;BME280;45999;48.808;9.182;2024-02-21T11:01:28;98469.63;;;11.19;nan
113;BME280;45999;48.808;9.182;2024-02-21T11:03:58;98464.91;;;11.52;nan
113;BME280;45999;48.808;9.182;2024-02-21T11:06:26;98453.47;;;11.52;nan
113;BME280;45999;48.808;9.182;2024-02-21T11:09:07;98450.69;;;11.71;nan
113;BME280;45999;48.808;9.182;2024-02-21T11:11:34;98440.53;;;11.62;nan
113;BME280;45999;48.808;9.182;2024-02-21T11:14:10;98436.91;;;11.43;nan
113;BME280;45999;48.808;9.182;2024-02-21T11:16:40;98432.38;;;11.50;nan
113;BME280;45999;48.808;9.182;2024-02-21T11:19:18;98418.34;;;11.92;nan
113;BME280;45999;48.808;9.182;2024-02-21T11:21:45;98423.31;;;11.58;nan
113;BME280;45999;48.808;9.182;2024-02-21T11:24:13;98413.63;;;12.12;nan
113;BME280;45999;48.808;9.182;2024-02-21T11:26:40;98404.09;;;11.80;nan
113;BME280;45999;48.808;9.182;2024-02-21T11:29:07;98402.25;;;12.05;nan
113;BME280;45999;48.808;9.182;2024-02-21T11:31:43;98391.69;;;11.92;nan
113;BME280;45999;48.808;9.182;2024-02-21T11:34:11;98390.78;;;11.80;nan
113;BME280;45999;48.808;9.182;2024-02-21T11:36:48;98386.31;;;11.99;nan
113;BME280;45999;48.808;9.182;2024-02-21T11:39:24;98373.88;;;11.93;nan
113;BME280;45999;48.808;9.182;2024-02-21T11:42:07;98376.78;;;12.09;nan
113;BME280;45999;48.808;9.182;2024-02-21T11:44:35;98363.25;;;12.29;nan
113;BME280;45999;48.808;9.182;2024-02-21T11:47:03;98368.19;;;12.25;nan
113;BME280;45999;48.808;9.182;2024-02-21T11:49:30;98365.09;;;12.28;nan
113;BME280;45999;48.808;9.182;2024-02-21T11:52:03;98350.72;;;12.29;nan
113;BME280;45999;48.808;9.182;2024-02-21T11:54:30;98356.19;;;12.16;nan
113;BME280;45999;48.808;9.182;2024-02-21T11:56:56;98341.75;;;12.24;nan
113;BME280;45999;48.808;9.182;2024-02-21T11:59:23;98342.34;;;12.08;nan
113;BME280;45999;48.808;9.182;2024-02-21T12:01:49;98331.97;;;12.18;nan
113;BME280;45999;48.808;9.182;2024-02-21T12:04:17;98328.66;;;12.22;nan
113;BME280;45999;48.808;9.182;2024-02-21T12:06:45;98328.59;;;12.29;nan
113;BME280;45999;48.808;9.182;2024-02-21T12:09:15;98326.28;;;12.32;nan
113;BME280;45999;48.808;9.182;2024-02-21T12:11:43;98317.38;;;12.38;nan
113;BME280;45999;48.808;9.182;2024-02-21T12:14:09;98314.94;;;12.37;nan
113;BME280;45999;48.808;9.182;2024-02-21T12:16:36;98308.47;;;12.44;nan
113;BME280;45999;48.808;9.182;2024-02-21T12:19:03;98303.69;;;12.53;nan
113;BME280;45999;48.808;9.182;2024-02-21T12:21:30;98298.28;;;12.41;nan
113;BME280;45999;48.808;9.182;2024-02-21T12:23:57;98287.66;;;12.53;nan
113;BME280;45999;48.808;9.182;2024-02-21T12:26:24;98287.69;;;12.35;nan
113;BME280;45999;48.808;9.182;2024-02-21T12:28:51;98279.09;;;12.33;nan
113;BME280;45999;48.808;9.182;2024-02-21T12:31:18;98277.03;;;12.35;nan
113;BME280;45999;48.808;9.182;2024-02-21T12:33:44;98266.72;;;12.38;nan
113;BME280;45999;48.808;9.182;2024-02-21T12:36:10;98259.28;;;12.29;nan
113;BME280;45999;48.808;9.182;2024-02-21T12:38:37;98252.03;;;12.47;nan
113;BME280;45999;48.808;9.182;2024-02-21T12:41:03;98254.16;;;12.27;nan
113;BME280;45999;48.808;9.182;2024-02-21T12:43:30;98239.94;;;12.33;nan
113;BME280;45999;48.808;9.182;2024-02-21T12:45:56;98233.88;;;12.56;nan
113;BME280;45999;48.808;9.182;2024-02-21T12:48:22;98231.25;;;12.67;nan
113;BME280;45999;48.808;9.182;2024-02-21T12:50:50;98228.34;;;12.69;nan
113;BME280;45999;48.808;9.182;2024-02-21T12:53:19;98223.75;;;12.87;nan
113;BME280;45999;48.808;9.182;2024-02-21T12:55:48;98223.13;;;12.74;nan
113;BME280;45999;48.808;9.182;2024-02-21T12:58:14;98213.59;;;12.66;nan
113;BME280;45999;48.808;9.182;2024-02-21T13:00:41;98205.03;;;12.64;nan
113;BME280;45999;48.808;9.182;2024-02-21T13:03:08;98200.06;;;12.79;nan
113;BME280;45999;48.808;9.182;2024-02-21T13:05:36;98196.47;;;12.85;nan
113;BME280;45999;48.808;9.182;2024-02-21T13:08:04;98184.66;;;12.81;nan
113;BME280;45999;48.808;9.182;2024-02-21T13:10:31;98183.75;;;12.87;nan
113;BME280;45999;48.808;9.182;2024-02-21T13:12:58;98185.50;;;13.05;nan
113;BME280;45999;48.808;9.182;2024-02-21T13:15:25;98177.09;;;12.78;nan
113;BME280;45999;48.808;9.182;2024-02-21T13:17:53;98174.00;;;12.81;nan
113;BME280;45999;48.808;9.182;2024-02-21T13:20:20;98163.69;;;12.96;nan
113;BME280;45999;48.808;9.182;2024-02-21T13:22:46;98160.59;;;13.22;nan
113;BME280;45999;48.808;9.182;2024-02-21T13:25:12;98154.41;;;13.22;nan
113;BME280;45999;48.808;9.182;2024-02-21T13:27:40;98152.91;;;13.14;nan
113;BME280;45999;48.808;9.182;2024-02-21T13:30:07;98146.19;;;13.23;nan
113;BME280;45999;48.808;9.182;2024-02-21T13:32:35;98136.44;;;13.17;nan
113;BME280;45999;48.808;9.182;2024-02-21T13:35:01;98129.25;;;13.06;nan
113;BME280;45999;48.808;9.182;2024-02-21T13:37:28;98129.34;;;13.00;nan
113;BME280;45999;48.808;9.182;2024-02-21T13:39:55;98110.44;;;13.13;nan
113;BME280;45999;48.808;9.182;2024-02-21T13:42:21;98106.03;;;13.18;nan
113;BME280;45999;48.808;9.182;2024-02-21T13:44:49;98106.81;;;12.96;nan
113;BME280;45999;48.808;9.182;2024-02-21T13:47:15;98104.13;;;12.96;nan
113;BME280;45999;48.808;9.182;2024-02-21T13:49:41;98102.75;;;13.16;nan
113;BME280;45999;48.808;9.182;2024-02-21T13:52:08;98095.59;;;13.17;nan
113;BME280;45999;48.808;9.182;2024-02-21T13:54:35;98088.97;;;13.19;nan